CNY3 weather

Collingwood Airport
Collingwood, Ontario, Canada

Public forecast

Using degrees Celsius for public forecast. Weather courtesy of forecast.io.

Closest aviation weather report (METAR) to Collingwood Airport

Closest report is CFB Borden, 15.0 nm (27.8 km) SE. Retrieved 2019/10/19 20:00 UTC (50 minutes ago):

CYBN 192000Z AUTO 13009KT 9SM CLR 14/03 A2995 RMK SLP151

Closest aviation forecast (TAF) to Collingwood Airport

Forecast is more than 12 hours old.

Closest forecast is CFB Borden, 15.0 nm (27.8 km) SE. Retrieved 2019/10/18 18:33 UTC (1 day ago):

TAF TAF CYBN 181730Z 1818/1906 33010KT P6SM BKN020 BECMG 1818/1819 SCT025 SCT240 BECMG 1823/1901 VRB03KT RMK FCST BASED ON AUTO OBS NXT FCST BY 190000Z